Kerteminde

DK-0064 · 南丹麦大区, 丹麦

使用的METAR站距离机场74 km。
罗盘
风向 的 风向 的 风向 到 风向 080° Kerteminde 3/21
风: 5 kt, 2 beaufort

3 kt

4 kt
改变
0 ft 1.000 2.000 3.000 4.000 5.000
未检测到零云
METAR EKSB 172350Z AUTO 08005KT 060V130 9999 NCD 13/09 Q1013

METAR Kerteminde - DK-0064

Kerteminde是,丹麦中的小机场。 该机场位于纬度55,44944和经度10,59889。 该机场有一条跑道: 3/21. 这个机场没有ICAO代码,我们使用DK-0064作为参考。 机场在Kobenhavn FIR中。

该航空气象观测是针对Sønderborg Airport在2024年5月18日 01:50, 当地时间进行的。

机场观察

风向为080°,速度为5 kt。 风向在060°和130°之间变化。

可见度为10 km 或者更多。

有未检测到零云。 没有观察到天花板。

温度和风寒是13 °C。 露点为9 °C,相对湿度为77%。 海平面上的气压为1013 hPa (QNH)。

白天

今天,太阳从05:01升起,在21:26降落。 这适用于Kerteminde,世界夏令时可能有所不同。 当地时间与世界标准时间之间的时差为+2 小时。 夏令时目前正在进行中。

公司介绍

我们没有关于这个机场的公司信息。

体会

到Vliegles.nl去找飞行课程,跳伞和其他飞行体验。 浏览页面,了解Kerteminde附近所有可用的活动。 你也可以使用搜索功能来寻找你所在地附近的特定飞行课程、跳伞或其他飞行体验。

跑道

Id 标题 侧风 逆风 侧风 %
3/21 030°-210° 4 kt 3 kt 77 %

逆风成分最大的方向会被突出显示,并用于横风计算。 这并不一定意味着这个方向在使用。

乌云

- NCD 未检测到零云

温度 & 天气

温度 13 °C
露点 9 °C
相对湿度 77%
Kp-index 1 (0-9)

白天

日出
05:08 (2:45)
中午
13:17
日落
21:25

小工具

你想在你的网站上有一个关于Kerteminde的当前航空天气(METAR)的小部件吗?

显示HTML代码
报告变更